Time;durP1;ratioP1;P1;durP2;ratioP2;P2;SDS_P1;SDS_P2;PMS_P1;PMS_P2;Temp;Humidity;BMP_temperature;BMP_pressure;BME280_temperature;BME280_humidity;BME280_pressure;Samples;Min_cycle;Max_cycle;Signal;HPM_P1;HPM_P2
2021/11/18 00:00:49;;;;;;;7.93;5.30;;;7.20;99.90;;;;;;4949668;29;20142;-79
2021/11/18 06:01:47;;;;;;;14.48;8.93;;;7.10;99.90;;;;;;5322605;23;20648;-78
2021/11/18 06:04:14;;;;;;;14.88;9.57;;;7.10;99.90;;;;;;4937113;29;20086;-79
2021/11/18 06:06:43;;;;;;;16.30;9.77;;;7.20;99.90;;;;;;4935417;29;20130;-79
2021/11/18 06:09:10;;;;;;;14.65;9.55;;;7.20;99.90;;;;;;4937247;29;20051;-79
2021/11/18 06:11:40;;;;;;;14.00;8.73;;;7.30;99.90;;;;;;4936908;29;20143;-79
2021/11/18 06:14:08;;;;;;;16.95;8.88;;;7.30;99.90;;;;;;4936759;29;20079;-80
2021/11/18 06:16:36;;;;;;;16.02;9.40;;;7.30;99.90;;;;;;4936877;29;20135;-79
2021/11/18 06:19:05;;;;;;;18.00;10.00;;;7.30;99.90;;;;;;4936737;29;20146;-80
2021/11/18 06:21:37;;;;;;;15.70;9.85;;;7.30;99.90;;;;;;4921653;29;20044;-80
2021/11/18 06:24:05;;;;;;;15.05;10.02;;;7.30;99.90;;;;;;4917825;29;20135;-79
2021/11/18 06:26:32;;;;;;;18.10;10.02;;;7.30;99.90;;;;;;4917686;29;20107;-77
2021/11/18 06:29:00;;;;;;;16.50;9.98;;;7.30;99.90;;;;;;4917562;29;20147;-78
2021/11/18 06:31:27;;;;;;;17.08;10.18;;;7.20;99.90;;;;;;4917651;29;20472;-79
2021/11/18 06:33:54;;;;;;;16.35;9.90;;;7.30;99.90;;;;;;4917506;29;20131;-80
2021/11/18 06:36:23;;;;;;;17.23;10.13;;;7.20;99.90;;;;;;4933314;29;20462;-77
2021/11/18 06:38:52;;;;;;;18.40;10.63;;;7.20;99.90;;;;;;4936926;29;20684;-80
2021/11/18 06:41:22;;;;;;;16.75;9.68;;;7.20;99.90;;;;;;4936896;29;20142;-78
2021/11/18 06:43:50;;;;;;;15.43;9.70;;;7.20;99.90;;;;;;4935722;29;20134;-79
2021/11/18 06:46:18;;;;;;;16.77;9.80;;;7.20;99.90;;;;;;4936441;29;20051;-76
2021/11/18 06:48:45;;;;;;;20.30;10.90;;;7.30;99.90;;;;;;4925783;29;20059;-77
2021/11/18 06:51:16;;;;;;;16.55;10.68;;;7.20;99.90;;;;;;4917145;29;20148;-78
2021/11/18 06:53:45;;;;;;;15.55;9.98;;;7.30;99.90;;;;;;4917155;29;20060;-80
2021/11/18 06:56:13;;;;;;;17.92;10.77;;;7.30;99.90;;;;;;4917037;29;20142;-79
2021/11/18 06:58:41;;;;;;;19.13;10.77;;;7.30;99.90;;;;;;4916984;29;20059;-78
2021/11/18 07:01:08;;;;;;;16.10;10.38;;;7.30;99.90;;;;;;4916783;29;20513;-80
2021/11/18 07:03:39;;;;;;;18.35;10.63;;;7.30;99.90;;;;;;4928045;29;20102;-78
2021/11/18 07:06:07;;;;;;;18.83;10.88;;;7.30;99.90;;;;;;4936205;29;20051;-80
2021/11/18 07:08:34;;;;;;;17.55;10.00;;;7.30;99.90;;;;;;4935665;29;20519;-79
2021/11/18 07:11:03;;;;;;;17.48;10.48;;;7.30;99.90;;;;;;4935897;29;20091;-80
2021/11/18 07:13:32;;;;;;;18.73;10.30;;;7.30;99.90;;;;;;4935788;29;20134;-79
2021/11/18 07:16:00;;;;;;;18.58;10.85;;;7.30;99.90;;;;;;4935998;29;20048;-80
2021/11/18 07:18:28;;;;;;;17.95;10.85;;;7.40;99.90;;;;;;4934195;29;20054;-79
2021/11/18 07:20:56;;;;;;;17.55;10.02;;;7.40;99.90;;;;;;4935811;29;20051;-78
2021/11/18 07:23:25;;;;;;;17.13;10.85;;;7.40;99.90;;;;;;4935565;29;20465;-78
2021/11/18 07:25:55;;;;;;;17.52;10.45;;;7.40;99.90;;;;;;4935266;29;20131;-78
2021/11/18 07:28:27;;;;;;;18.83;10.88;;;7.40;99.90;;;;;;4935803;29;20131;-76
2021/11/18 07:30:55;;;;;;;19.25;10.50;;;7.40;99.90;;;;;;4935647;29;20123;-80
2021/11/18 07:33:24;;;;;;;17.38;10.25;;;7.40;99.90;;;;;;4923179;29;20138;-78
2021/11/18 07:35:53;;;;;;;17.83;10.35;;;7.40;99.90;;;;;;4916338;29;20072;-79
2021/11/18 07:38:20;;;;;;;15.95;10.25;;;7.40;99.90;;;;;;4916208;29;20075;-78
2021/11/18 07:40:48;;;;;;;16.75;9.40;;;7.40;99.90;;;;;;4916308;29;20068;-78
2021/11/18 07:43:19;;;;;;;16.48;10.32;;;7.50;99.90;;;;;;4916421;29;20074;-78
2021/11/18 07:45:48;;;;;;;17.38;9.77;;;7.50;99.90;;;;;;4916439;29;20052;-78
2021/11/18 07:48:16;;;;;;;18.27;10.23;;;7.50;99.90;;;;;;4922863;29;20044;-81
2021/11/18 07:50:44;;;;;;;15.95;9.23;;;7.50;99.90;;;;;;4916072;29;20142;-79
2021/11/18 07:53:12;;;;;;;15.32;10.02;;;7.50;99.90;;;;;;4915737;29;20681;-79
2021/11/18 07:55:39;;;;;;;17.95;9.70;;;7.50;99.90;;;;;;4916016;29;20048;-80
2021/11/18 07:58:06;;;;;;;16.52;9.45;;;7.50;99.90;;;;;;4916098;29;20091;-78
2021/11/18 08:00:34;;;;;;;16.33;9.57;;;7.60;99.90;;;;;;4925814;29;20127;-79
2021/11/18 08:03:08;;;;;;;17.08;10.38;;;7.60;99.90;;;;;;4934641;29;20149;-81
2021/11/18 08:05:35;;;;;;;16.80;9.87;;;7.60;99.90;;;;;;4935043;29;20089;-78
2021/11/18 08:08:03;;;;;;;15.95;9.95;;;7.60;99.90;;;;;;4930879;29;20323;-78
2021/11/18 08:10:30;;;;;;;17.15;9.48;;;7.60;99.90;;;;;;4930897;29;20138;-78
2021/11/18 08:12:57;;;;;;;16.10;9.85;;;7.60;99.90;;;;;;4931068;29;20560;-79
2021/11/18 08:15:24;;;;;;;17.70;9.80;;;7.60;99.90;;;;;;4930651;29;20099;-77
2021/11/18 08:17:53;;;;;;;18.38;9.85;;;7.70;99.90;;;;;;4912308;29;20063;-79
2021/11/18 08:20:23;;;;;;;19.52;10.50;;;7.70;99.90;;;;;;4911263;29;20052;-78
2021/11/18 08:22:51;;;;;;;19.23;10.23;;;7.80;99.90;;;;;;4911794;29;20139;-78
2021/11/18 08:25:22;;;;;;;22.45;11.73;;;7.70;99.90;;;;;;4911840;29;20062;-78
2021/11/18 08:27:51;;;;;;;16.70;10.48;;;7.80;99.90;;;;;;4931170;29;20079;-76
2021/11/18 08:30:22;;;;;;;19.08;11.02;;;7.80;99.90;;;;;;4930709;29;20052;-77
2021/11/18 08:32:53;;;;;;;19.92;11.48;;;7.80;99.90;;;;;;4930500;29;20134;-79
2021/11/18 08:35:26;;;;;;;17.80;10.57;;;7.80;99.90;;;;;;4930834;29;20130;-78
2021/11/18 08:37:55;;;;;;;18.88;11.05;;;7.80;99.90;;;;;;4930928;29;20048;-77
2021/11/18 08:40:22;;;;;;;19.30;11.60;;;7.80;99.90;;;;;;4927750;29;20095;-78
2021/11/18 08:42:49;;;;;;;17.73;11.02;;;7.80;99.90;;;;;;4911768;29;20131;-79
2021/11/18 08:45:17;;;;;;;21.08;11.70;;;7.70;99.90;;;;;;4912012;29;20135;-80
2021/11/18 08:47:44;;;;;;;19.27;11.45;;;7.70;99.90;;;;;;4912069;29;20127;-77
2021/11/18 08:50:14;;;;;;;19.33;11.48;;;7.70;99.90;;;;;;4911819;29;20138;-79
2021/11/18 08:52:43;;;;;;;21.92;11.90;;;7.70;99.90;;;;;;4913211;29;20138;-78
2021/11/18 08:55:14;;;;;;;19.30;11.55;;;7.70;99.90;;;;;;4930179;29;20139;-78
2021/11/18 08:57:43;;;;;;;19.42;11.10;;;7.70;99.90;;;;;;4931628;29;20134;-78
2021/11/18 09:00:16;;;;;;;22.35;12.93;;;7.70;99.90;;;;;;4931772;29;20150;-80
2021/11/18 09:02:43;;;;;;;20.05;11.45;;;7.80;99.90;;;;;;4931746;29;20060;-75
2021/11/18 09:05:10;;;;;;;20.17;12.52;;;7.80;99.90;;;;;;4931477;29;20146;-78
2021/11/18 09:07:37;;;;;;;20.70;11.60;;;7.80;99.90;;;;;;4935189;29;20126;-78
2021/11/18 09:10:08;;;;;;;22.52;12.18;;;7.90;99.90;;;;;;4920731;29;20139;-80
2021/11/18 09:12:35;;;;;;;19.98;11.65;;;7.90;99.90;;;;;;4915911;29;20512;-79
2021/11/18 09:15:02;;;;;;;18.30;11.20;;;7.90;99.90;;;;;;4916503;29;20044;-80
2021/11/18 09:17:30;;;;;;;16.95;10.68;;;7.90;99.90;;;;;;4916060;29;20052;-81
2021/11/18 09:19:57;;;;;;;18.80;11.70;;;7.90;99.90;;;;;;4916043;29;20565;-78
2021/11/18 09:22:24;;;;;;;17.98;10.63;;;7.90;99.90;;;;;;4916221;29;20159;-78
2021/11/18 09:24:55;;;;;;;17.65;11.70;;;8.00;99.90;;;;;;4915878;29;20143;-79
2021/11/18 09:27:33;;;;;;;16.70;10.07;;;8.00;99.90;;;;;;4915924;29;20467;-78
2021/11/18 09:30:02;;;;;;;19.40;11.48;;;8.10;99.90;;;;;;4916241;29;20056;-78
2021/11/18 09:32:29;;;;;;;15.88;10.75;;;8.20;99.90;;;;;;4915773;29;20052;-78
2021/11/18 09:34:57;;;;;;;17.02;9.93;;;8.20;99.90;;;;;;4915618;29;20151;-78
2021/11/18 09:37:25;;;;;;;17.08;10.85;;;8.20;99.90;;;;;;4915995;29;20138;-77
2021/11/18 09:39:52;;;;;;;18.02;10.65;;;8.20;99.90;;;;;;4930637;29;20148;-79
2021/11/18 09:42:45;;;;;;;15.30;9.90;;;8.20;99.90;;;;;;4934534;29;20147;-77
2021/11/18 09:45:21;;;;;;;16.00;9.52;;;8.20;99.90;;;;;;4934469;29;20138;-78
2021/11/18 09:48:37;;;;;;;15.40;8.98;;;8.30;99.90;;;;;;4934345;29;20175;-78
2021/11/18 09:51:33;;;;;;;15.60;9.35;;;8.30;99.90;;;;;;4933951;29;20173;-78
2021/11/18 09:54:49;;;;;;;16.05;8.88;;;8.40;99.90;;;;;;4933089;29;20054;-79
2021/11/18 09:57:36;;;;;;;14.02;8.68;;;8.50;99.90;;;;;;4922160;29;20485;-77
2021/11/18 10:00:13;;;;;;;13.80;9.05;;;8.60;99.90;;;;;;4935243;29;20485;-77
2021/11/18 10:03:08;;;;;;;14.68;9.48;;;8.60;99.90;;;;;;4934076;29;20561;-78
2021/11/18 10:05:59;;;;;;;12.93;8.30;;;8.60;99.90;;;;;;4933755;29;20151;-78
2021/11/18 10:08:33;;;;;;;13.25;8.10;;;8.70;99.90;;;;;;4932332;29;20126;-77
2021/11/18 10:11:15;;;;;;;18.25;11.00;;;8.60;99.90;;;;;;4934707;29;20062;-79
2021/11/18 10:14:00;;;;;;;13.32;8.60;;;8.70;99.90;;;;;;4934901;29;20147;-79
2021/11/18 10:16:34;;;;;;;12.73;7.78;;;8.70;99.90;;;;;;4934107;29;20173;-79
2021/11/18 10:19:06;;;;;;;12.00;7.40;;;8.70;99.90;;;;;;4933917;29;20580;-76
2021/11/18 10:21:38;;;;;;;10.90;7.13;;;8.70;99.90;;;;;;4932228;29;20086;-78
2021/11/18 10:24:13;;;;;;;11.90;7.70;;;8.70;99.90;;;;;;4934689;29;20099;-79
2021/11/18 10:26:46;;;;;;;;;;;8.80;99.90;;;;;;4933335;29;20135;-79
2021/11/18 10:29:17;;;;;;;11.30;6.73;;;8.80;99.90;;;;;;4934009;29;20021;-79
2021/11/18 10:31:52;;;;;;;9.15;6.00;;;8.90;99.90;;;;;;4934624;29;20058;-81
2021/11/18 10:34:26;;;;;;;10.13;5.93;;;9.10;99.90;;;;;;4934730;29;20047;-79
2021/11/18 10:37:08;;;;;;;8.68;5.43;;;9.10;99.90;;;;;;4919313;29;20138;-81
2021/11/18 10:39:55;;;;;;;8.63;5.30;;;9.20;99.90;;;;;;4914710;29;20135;-81
2021/11/18 10:42:30;;;;;;;6.55;4.35;;;9.30;99.90;;;;;;4914836;29;20127;-80
2021/11/18 10:45:01;;;;;;;5.90;3.45;;;9.30;99.90;;;;;;4914815;29;20498;-81
2021/11/18 10:47:35;;;;;;;6.10;3.70;;;9.30;99.90;;;;;;4914937;29;20123;-79
2021/11/18 10:50:14;;;;;;;6.68;4.50;;;9.30;99.90;;;;;;4915682;29;20143;-79
2021/11/18 10:52:46;;;;;;;6.18;3.88;;;9.30;99.90;;;;;;4915434;29;20052;-81
2021/11/18 10:55:17;;;;;;;5.32;3.33;;;9.40;99.90;;;;;;4915026;29;20134;-81
2021/11/18 10:58:01;;;;;;;6.90;3.92;;;9.30;99.90;;;;;;4914254;29;20139;-80
2021/11/18 11:00:32;;;;;;;10.05;6.57;;;9.30;99.90;;;;;;4913914;29;20135;-80
2021/11/18 11:03:01;;;;;;;15.05;8.27;;;9.40;99.90;;;;;;4914340;29;20136;-81
2021/11/18 11:05:38;;;;;;;14.52;7.85;;;9.40;99.90;;;;;;4915630;29;20099;-79
2021/11/18 11:08:26;;;;;;;10.90;6.60;;;9.40;99.90;;;;;;4914948;29;20451;-81
2021/11/18 11:10:59;;;;;;;10.23;6.10;;;9.40;99.90;;;;;;4914373;29;20130;-86
2021/11/18 11:14:04;;;;;;;9.90;6.38;;;9.40;99.90;;;;;;4915063;29;20048;-85
2021/11/18 11:17:21;;;;;;;11.05;6.40;;;9.40;99.90;;;;;;4911576;29;20048;-85
2021/11/18 11:19:57;;;;;;;10.43;6.88;;;9.50;99.90;;;;;;4915379;29;20644;-83
2021/11/18 11:22:34;;;;;;;9.43;5.97;;;9.50;99.90;;;;;;4933892;29;20813;-80
2021/11/18 11:25:24;;;;;;;10.75;6.72;;;9.60;99.90;;;;;;4933873;29;20087;-82
2021/11/18 11:28:38;;;;;;;10.68;6.75;;;9.60;99.90;;;;;;4933584;29;20133;-83
2021/11/18 11:31:28;;;;;;;8.50;5.43;;;9.60;99.90;;;;;;4933382;29;20142;-80
2021/11/18 11:34:08;;;;;;;9.18;5.95;;;9.60;99.90;;;;;;4933231;29;20119;-81
2021/11/18 11:36:50;;;;;;;8.93;5.88;;;9.70;99.90;;;;;;4934173;29;20083;-78
2021/11/18 11:39:25;;;;;;;8.57;5.68;;;9.80;99.90;;;;;;4935321;29;20150;-83
2021/11/18 11:42:37;;;;;;;9.25;5.30;;;9.90;99.90;;;;;;4936000;29;20445;-79
2021/11/18 11:45:20;;;;;;;7.40;4.70;;;9.90;99.90;;;;;;4924981;29;20079;-81
2021/11/18 11:48:24;;;;;;;8.52;5.05;;;10.00;99.90;;;;;;4933721;29;20083;-81
2021/11/18 11:51:52;;;;;;;7.35;4.78;;;10.10;99.90;;;;;;4933797;29;20470;-80
2021/11/18 11:54:48;;;;;;;7.47;4.43;;;10.10;99.90;;;;;;4933223;29;20055;-80
2021/11/18 11:57:28;;;;;;;7.85;4.47;;;10.20;99.90;;;;;;4937358;29;20058;-81
2021/11/18 12:00:20;;;;;;;6.70;3.67;;;10.30;99.90;;;;;;4933112;29;20154;-80
2021/11/18 12:03:00;;;;;;;5.60;3.60;;;10.40;99.90;;;;;;4932161;29;20256;-79
2021/11/18 12:05:37;;;;;;;4.28;2.50;;;10.50;99.90;;;;;;4917479;29;20132;-78
2021/11/18 12:08:14;;;;;;;6.15;2.83;;;10.60;99.40;;;;;;4913822;29;20055;-82
2021/11/18 12:10:54;;;;;;;4.07;2.40;;;10.70;99.30;;;;;;4913881;29;20051;-78
2021/11/18 12:13:38;;;;;;;4.00;2.20;;;10.70;98.80;;;;;;4913934;29;20076;-78
2021/11/18 12:16:14;;;;;;;3.75;2.00;;;10.70;97.60;;;;;;4915708;29;20116;-78
2021/11/18 12:18:48;;;;;;;4.68;2.47;;;10.70;98.00;;;;;;4917482;29;20052;-79
2021/11/18 12:21:19;;;;;;;5.90;3.10;;;10.70;98.10;;;;;;4914578;29;20104;-81
2021/11/18 12:24:11;;;;;;;5.32;3.00;;;10.70;98.20;;;;;;4933279;29;20228;-80
2021/11/18 12:26:52;;;;;;;5.35;3.30;;;10.70;98.20;;;;;;4933993;29;20090;-78
2021/11/18 12:29:35;;;;;;;5.32;3.10;;;10.60;98.00;;;;;;4931713;29;20477;-79
2021/11/18 12:32:25;;;;;;;5.90;3.20;;;10.60;98.30;;;;;;4934911;29;20091;-79
2021/11/18 12:34:59;;;;;;;5.25;3.55;;;10.50;98.20;;;;;;4933537;29;20086;-79
2021/11/18 12:37:33;;;;;;;5.17;3.20;;;10.40;98.20;;;;;;4934212;29;20139;-79
2021/11/18 12:40:34;;;;;;;6.13;3.80;;;10.40;98.60;;;;;;4932413;28;20131;-80
2021/11/18 12:43:44;;;;;;;6.20;3.53;;;10.40;98.90;;;;;;4936152;29;20111;-80
2021/11/18 12:46:24;;;;;;;5.80;3.42;;;10.50;99.10;;;;;;4924925;29;20054;-79
2021/11/18 12:49:14;;;;;;;5.57;3.60;;;10.50;98.80;;;;;;4918736;29;20143;-80
2021/11/18 12:52:19;;;;;;;5.95;3.78;;;10.60;98.70;;;;;;4916928;29;20054;-79
2021/11/18 12:55:31;;;;;;;6.63;3.92;;;10.70;98.60;;;;;;4916519;29;20130;-79
2021/11/18 12:58:42;;;;;;;6.28;4.03;;;10.70;98.50;;;;;;4917066;29;20144;-79
2021/11/18 13:01:50;;;;;;;7.15;3.90;;;10.60;98.60;;;;;;4917666;29;20056;-81
2021/11/18 13:05:02;;;;;;;6.68;3.88;;;10.60;98.40;;;;;;4914324;29;20048;-80
2021/11/18 13:07:46;;;;;;;7.97;4.25;;;10.60;98.70;;;;;;4897145;29;20059;-79
2021/11/18 13:10:37;;;;;;;7.97;4.30;;;10.50;98.60;;;;;;4917778;29;20127;-80
2021/11/18 13:13:38;;;;;;;6.05;3.90;;;10.50;98.60;;;;;;4923924;29;20139;-79
2021/11/18 13:16:38;;;;;;;6.00;3.67;;;10.40;99.00;;;;;;4933714;29;20489;-79
2021/11/18 13:19:27;;;;;;;17.30;9.10;;;10.40;98.70;;;;;;4933365;29;20134;-79
2021/11/18 13:22:22;;;;;;;15.45;7.75;;;10.30;98.30;;;;;;4923990;29;20380;-80
2021/11/18 13:24:58;;;;;;;7.38;3.85;;;10.30;98.50;;;;;;4916744;29;20142;-79
2021/11/18 13:27:33;;;;;;;5.25;3.22;;;10.30;98.40;;;;;;4927032;29;20139;-81
2021/11/18 13:30:02;;;;;;;4.70;2.75;;;10.30;98.40;;;;;;4935180;29;20163;-79
2021/11/18 13:32:31;;;;;;;4.93;2.60;;;10.20;98.50;;;;;;4935193;29;20062;-80
2021/11/18 13:35:03;;;;;;;4.68;2.60;;;10.20;98.00;;;;;;4934722;29;20087;-81
2021/11/18 13:37:34;;;;;;;4.55;2.67;;;10.20;98.20;;;;;;4930901;29;20075;-81
2021/11/18 13:40:18;;;;;;;5.53;3.10;;;10.10;98.30;;;;;;4916157;29;20147;-80
2021/11/18 13:43:05;;;;;;;4.88;1.98;;;10.10;98.40;;;;;;4915975;29;20135;-81
2021/11/18 13:45:36;;;;;;;3.83;1.70;;;10.10;97.50;;;;;;4916739;29;20052;-81
2021/11/18 13:48:08;;;;;;;4.25;1.65;;;10.00;97.50;;;;;;4915610;29;20048;-81
2021/11/18 13:50:40;;;;;;;4.25;1.83;;;10.00;97.60;;;;;;4931780;29;20127;-78
2021/11/18 13:53:11;;;;;;;3.03;1.40;;;10.00;97.60;;;;;;4934556;29;20147;-81
2021/11/18 13:55:50;;;;;;;3.15;1.52;;;10.00;97.50;;;;;;4934741;29;20070;-81
2021/11/18 13:58:31;;;;;;;4.45;2.00;;;10.00;97.40;;;;;;4935226;29;20150;-81
2021/11/18 14:01:05;;;;;;;4.55;1.90;;;9.90;97.50;;;;;;4933514;29;20079;-81
2021/11/18 14:03:37;;;;;;;3.88;1.92;;;9.90;97.50;;;;;;4934872;29;20085;-81
2021/11/18 14:06:10;;;;;;;3.80;2.03;;;9.90;97.50;;;;;;4934287;29;20255;-81
2021/11/18 14:08:44;;;;;;;3.42;1.90;;;9.90;97.60;;;;;;4935275;29;20158;-81
2021/11/18 14:11:16;;;;;;;4.90;2.03;;;9.80;97.70;;;;;;4917704;29;20048;-81
2021/11/18 14:13:47;;;;;;;3.20;1.83;;;9.80;97.50;;;;;;4914317;29;20112;-81
2021/11/18 14:16:30;;;;;;;4.05;1.90;;;9.70;97.80;;;;;;4915257;29;20147;-81
2021/11/18 14:19:14;;;;;;;3.92;1.85;;;9.70;98.10;;;;;;4926941;29;20044;-80
2021/11/18 14:21:49;;;;;;;4.25;2.00;;;9.70;98.00;;;;;;4934550;29;20138;-81
2021/11/18 14:24:32;;;;;;;4.55;2.03;;;9.70;97.80;;;;;;4932826;29;20071;-83
2021/11/18 14:27:04;;;;;;;3.15;1.65;;;9.70;97.90;;;;;;4933173;29;20488;-80
2021/11/18 14:29:54;;;;;;;3.78;1.73;;;9.70;97.20;;;;;;4934368;29;20150;-81
2021/11/18 14:32:37;;;;;;;3.38;1.50;;;9.60;97.50;;;;;;4934295;29;20056;-80
2021/11/18 14:35:31;;;;;;;2.80;1.50;;;9.60;97.50;;;;;;4933629;29;20151;-81
2021/11/18 14:38:01;;;;;;;4.78;1.60;;;9.60;97.50;;;;;;4933905;29;20291;-81
2021/11/18 14:40:40;;;;;;;4.82;1.58;;;9.60;97.60;;;;;;4933650;29;20139;-80
2021/11/18 14:43:15;;;;;;;3.17;1.60;;;9.60;97.80;;;;;;4932211;29;20132;-80
2021/11/18 14:45:47;;;;;;;3.13;1.75;;;9.60;97.60;;;;;;4934167;29;20134;-80
2021/11/18 14:48:29;;;;;;;2.80;1.40;;;9.60;97.70;;;;;;4933826;29;20401;-83
2021/11/18 14:51:12;;;;;;;3.78;1.60;;;9.60;97.80;;;;;;4933726;29;20462;-80
2021/11/18 14:54:07;;;;;;;4.95;1.67;;;9.60;97.90;;;;;;4934106;29;20126;-80
2021/11/18 14:56:38;;;;;;;3.80;1.77;;;9.60;97.70;;;;;;4931979;29;20134;-81
2021/11/18 14:59:09;;;;;;;4.88;1.83;;;9.50;97.80;;;;;;4934259;29;20063;-81
2021/11/18 15:01:43;;;;;;;3.30;1.90;;;9.50;97.80;;;;;;4933316;29;20059;-82
2021/11/18 15:04:22;;;;;;;3.53;2.05;;;9.50;97.90;;;;;;4931191;29;20138;-80
2021/11/18 15:06:50;;;;;;;4.13;2.20;;;9.50;98.00;;;;;;4933688;29;20142;-81
2021/11/18 15:09:20;;;;;;;4.10;2.10;;;9.40;98.10;;;;;;4933516;29;20564;-83
2021/11/18 15:11:52;;;;;;;4.57;2.40;;;9.40;98.00;;;;;;4914273;29;20138;-83
2021/11/18 15:14:20;;;;;;;5.00;2.25;;;9.40;98.00;;;;;;4914890;29;20047;-81
2021/11/18 15:16:50;;;;;;;4.53;2.40;;;9.40;98.10;;;;;;4914114;29;20048;-80
2021/11/18 15:19:19;;;;;;;4.07;1.98;;;9.40;98.10;;;;;;4913389;29;20139;-81
2021/11/18 15:21:46;;;;;;;4.03;2.20;;;9.40;98.10;;;;;;4914424;29;20139;-79
2021/11/18 15:24:17;;;;;;;3.55;1.92;;;9.40;98.00;;;;;;4916383;29;20139;-78
2021/11/18 15:26:45;;;;;;;11.43;3.05;;;9.30;98.00;;;;;;4932566;29;20477;-81
2021/11/18 15:29:15;;;;;;;3.70;2.00;;;9.30;98.10;;;;;;4932625;29;20138;-78
2021/11/18 15:31:43;;;;;;;5.60;2.10;;;9.40;98.10;;;;;;4932518;29;20142;-76
2021/11/18 15:34:13;;;;;;;4.25;2.30;;;9.40;98.10;;;;;;4932584;29;20127;-78
2021/11/18 15:36:40;;;;;;;4.70;2.33;;;9.40;98.00;;;;;;4930971;29;20142;-77
2021/11/18 15:39:12;;;;;;;4.47;2.33;;;9.40;98.10;;;;;;4932768;29;20058;-76
2021/11/18 15:41:51;;;;;;;4.45;2.20;;;9.40;97.90;;;;;;4927494;29;20135;-78
2021/11/18 15:44:18;;;;;;;4.05;2.33;;;9.40;98.00;;;;;;4913529;29;20140;-79
2021/11/18 15:46:49;;;;;;;4.10;2.20;;;9.30;98.00;;;;;;4913771;29;20135;-78
2021/11/18 15:49:20;;;;;;;4.45;2.10;;;9.30;98.10;;;;;;4913577;29;20383;-79
2021/11/18 15:51:49;;;;;;;3.75;2.10;;;9.30;98.00;;;;;;4913457;29;20127;-79
2021/11/18 15:54:17;;;;;;;4.03;2.40;;;9.30;98.10;;;;;;4913760;29;20079;-78
2021/11/18 15:56:46;;;;;;;4.05;2.20;;;9.30;98.20;;;;;;4916365;29;20122;-79
2021/11/18 15:59:15;;;;;;;4.47;1.90;;;9.30;98.20;;;;;;4925286;29;20138;-81
2021/11/18 16:01:46;;;;;;;3.80;2.17;;;9.30;98.10;;;;;;4925095;29;20063;-79
2021/11/18 16:04:20;;;;;;;4.10;2.00;;;9.30;97.90;;;;;;4913601;29;20083;-79
2021/11/18 16:06:48;;;;;;;4.88;1.67;;;9.30;97.70;;;;;;4913092;29;20388;-80
2021/11/18 16:09:18;;;;;;;3.45;1.70;;;9.30;97.80;;;;;;4914157;29;20103;-82
2021/11/18 16:11:49;;;;;;;3.03;1.60;;;9.30;97.80;;;;;;4924920;29;20113;-80
2021/11/18 16:14:23;;;;;;;3.55;1.70;;;9.30;97.90;;;;;;4946965;29;20062;-81
2021/11/18 16:16:53;;;;;;;5.03;2.00;;;9.20;98.00;;;;;;4923587;29;20431;-79
2021/11/18 16:19:24;;;;;;;4.25;1.90;;;9.20;98.00;;;;;;4925852;29;20446;-81
2021/11/18 16:21:51;;;;;;;3.97;1.80;;;9.20;98.20;;;;;;4932617;29;20079;-82
2021/11/18 16:24:19;;;;;;;4.20;2.00;;;9.20;98.30;;;;;;4920870;29;20086;-81
2021/11/18 16:26:47;;;;;;;4.22;2.00;;;9.10;98.30;;;;;;4931896;29;20087;-80
2021/11/18 16:29:19;;;;;;;3.92;1.80;;;9.10;98.40;;;;;;4922808;29;20132;-80
2021/11/18 16:31:50;;;;;;;3.83;2.00;;;9.10;98.40;;;;;;4919678;29;20147;-82
2021/11/18 16:34:19;;;;;;;3.78;1.92;;;9.10;98.40;;;;;;4914096;29;20148;-81
2021/11/18 16:36:49;;;;;;;3.78;2.00;;;9.10;98.50;;;;;;4912657;29;20138;-79
2021/11/18 16:39:18;;;;;;;4.15;1.90;;;9.10;98.40;;;;;;4931045;29;20458;-79
2021/11/18 16:41:57;;;;;;;4.32;2.00;;;9.10;98.40;;;;;;4929716;29;20096;-78
2021/11/18 16:44:24;;;;;;;3.60;1.73;;;9.00;98.30;;;;;;4921973;29;20466;-79
2021/11/18 16:46:52;;;;;;;4.50;2.33;;;9.00;98.40;;;;;;4920597;29;20658;-81
2021/11/18 16:49:19;;;;;;;4.10;2.25;;;9.00;98.60;;;;;;4917176;29;20139;-81
2021/11/18 16:51:52;;;;;;;4.53;2.30;;;9.00;98.70;;;;;;4917443;29;20056;-82
2021/11/18 16:54:19;;;;;;;4.65;2.17;;;9.00;98.80;;;;;;4923452;29;20150;-79
2021/11/18 16:56:49;;;;;;;4.63;2.05;;;9.00;98.80;;;;;;4920402;29;20058;-80
2021/11/18 16:59:19;;;;;;;3.97;1.88;;;9.00;98.90;;;;;;4915913;29;20489;-82
2021/11/18 17:01:50;;;;;;;3.67;1.88;;;9.00;98.90;;;;;;4913073;29;20131;-80
2021/11/18 17:04:17;;;;;;;4.82;2.08;;;9.00;99.10;;;;;;4920984;29;20441;-82
2021/11/18 17:06:49;;;;;;;4.65;2.40;;;8.90;99.30;;;;;;4926186;29;20047;-79
2021/11/18 17:09:16;;;;;;;4.70;2.35;;;8.90;99.30;;;;;;4923412;29;20139;-80
2021/11/18 17:11:47;;;;;;;5.20;2.90;;;8.90;99.40;;;;;;4912658;29;20076;-81
2021/11/18 17:14:16;;;;;;;5.18;2.40;;;8.90;99.40;;;;;;4931257;29;20083;-80
2021/11/18 17:16:48;;;;;;;4.55;2.33;;;8.90;99.40;;;;;;4929288;29;20175;-79
2021/11/18 17:19:15;;;;;;;4.22;2.17;;;8.90;99.50;;;;;;4923506;29;20142;-81
2021/11/18 17:21:57;;;;;;;5.13;2.38;;;8.80;99.60;;;;;;4912565;29;20131;-82
2021/11/18 17:24:25;;;;;;;4.65;2.50;;;8.80;99.70;;;;;;4919381;29;20127;-80
2021/11/18 17:26:54;;;;;;;4.80;2.30;;;8.80;99.80;;;;;;4921015;29;20118;-80
2021/11/18 17:29:29;;;;;;;4.93;2.80;;;8.70;99.90;;;;;;4916259;29;20131;-80
2021/11/18 17:31:58;;;;;;;5.00;2.90;;;8.70;99.90;;;;;;4923545;29;20499;-81
2021/11/18 17:34:26;;;;;;;4.90;2.63;;;8.60;99.90;;;;;;4932963;29;20135;-80
2021/11/18 17:36:57;;;;;;;5.40;2.28;;;8.60;99.90;;;;;;4932439;29;20055;-80
2021/11/18 17:39:30;;;;;;;5.78;2.55;;;8.50;99.90;;;;;;4931388;29;20055;-81
2021/11/18 17:42:01;;;;;;;7.53;2.90;;;8.50;99.90;;;;;;4926186;29;20048;-81
2021/11/18 17:44:29;;;;;;;4.93;2.65;;;8.40;99.90;;;;;;4915836;29;20446;-80
2021/11/18 17:47:00;;;;;;;4.05;2.33;;;8.40;99.90;;;;;;4919096;29;20139;-78
2021/11/18 17:49:29;;;;;;;4.43;2.60;;;8.30;99.90;;;;;;4917198;29;20131;-78
2021/11/18 17:52:03;;;;;;;5.03;2.70;;;8.30;99.90;;;;;;4935009;29;20115;-80
2021/11/18 17:54:31;;;;;;;5.97;2.72;;;8.20;99.90;;;;;;4933947;29;20537;-80
2021/11/18 17:56:59;;;;;;;5.50;2.97;;;8.20;99.90;;;;;;4938304;29;20087;-78
2021/11/18 17:59:29;;;;;;;5.68;3.20;;;8.20;99.90;;;;;;4934304;29;20727;-80
2021/11/18 18:02:00;;;;;;;5.82;3.33;;;8.20;99.90;;;;;;4926748;29;20083;-79
2021/11/18 18:04:27;;;;;;;7.22;4.18;;;8.20;99.90;;;;;;4914693;29;20056;-80
2021/11/18 18:06:57;;;;;;;7.85;4.30;;;8.10;99.90;;;;;;4925769;29;20131;-81
2021/11/18 18:09:29;;;;;;;7.05;4.18;;;8.10;99.90;;;;;;4924280;29;20054;-82
2021/11/18 18:11:56;;;;;;;6.47;3.90;;;8.10;99.90;;;;;;4926318;29;20461;-80
2021/11/18 18:14:25;;;;;;;6.40;3.97;;;8.10;99.90;;;;;;4918931;29;21159;-81
2021/11/18 18:16:55;;;;;;;6.78;3.97;;;8.10;99.90;;;;;;4928507;29;20044;-81
2021/11/18 18:19:25;;;;;;;6.68;3.78;;;8.10;99.90;;;;;;4928158;29;20051;-81
2021/11/18 18:21:56;;;;;;;6.90;3.67;;;8.10;99.90;;;;;;4916871;29;20468;-81
2021/11/18 18:24:26;;;;;;;7.03;4.40;;;8.00;99.90;;;;;;4933331;29;20052;-79
2021/11/18 18:26:58;;;;;;;7.78;4.32;;;8.10;99.90;;;;;;4929176;29;20746;-82
2021/11/18 18:29:27;;;;;;;6.57;3.50;;;8.00;99.90;;;;;;4932183;29;20136;-79
2021/11/18 18:31:59;;;;;;;8.45;4.10;;;8.00;99.90;;;;;;4916255;29;20131;-80
2021/11/18 18:34:28;;;;;;;6.88;4.18;;;7.90;99.90;;;;;;4924580;29;20060;-81
2021/11/18 18:36:56;;;;;;;10.32;4.22;;;7.80;99.90;;;;;;4924079;29;20138;-79
2021/11/18 18:39:37;;;;;;;6.47;3.85;;;7.70;99.90;;;;;;4927349;29;20123;-80
2021/11/18 18:42:07;;;;;;;7.55;3.70;;;7.70;99.90;;;;;;4921151;29;20061;-80
2021/11/18 18:44:35;;;;;;;7.63;3.78;;;7.70;99.90;;;;;;4930599;29;20126;-79
2021/11/18 18:47:04;;;;;;;8.10;3.63;;;7.70;99.90;;;;;;4922966;29;20211;-82
2021/11/18 18:49:39;;;;;;;7.18;4.22;;;7.60;99.90;;;;;;4926422;29;20454;-80
2021/11/18 18:52:11;;;;;;;7.63;4.65;;;7.70;99.90;;;;;;4922488;29;20110;-80
2021/11/18 18:54:40;;;;;;;8.77;4.53;;;7.60;99.90;;;;;;4916182;29;20135;-80
2021/11/18 18:57:09;;;;;;;6.60;4.18;;;7.70;99.90;;;;;;4923013;29;20581;-80
2021/11/18 18:59:39;;;;;;;8.02;4.70;;;7.70;99.90;;;;;;4932777;29;20161;-79
2021/11/18 19:02:12;;;;;;;7.78;4.43;;;7.70;99.90;;;;;;4930378;29;20119;-80
2021/11/18 19:04:40;;;;;;;6.40;4.07;;;7.60;99.90;;;;;;4922200;29;20127;-80
2021/11/18 19:07:10;;;;;;;6.97;4.50;;;7.60;99.90;;;;;;4923696;29;20106;-82
2021/11/18 19:09:41;;;;;;;7.78;4.47;;;7.60;99.90;;;;;;4931773;29;20126;-81
2021/11/18 19:12:12;;;;;;;6.82;4.00;;;7.60;99.90;;;;;;4932255;29;20507;-80
2021/11/18 19:14:40;;;;;;;9.02;4.50;;;7.60;99.90;;;;;;4926427;29;20130;-81
2021/11/18 19:17:08;;;;;;;7.28;4.70;;;7.60;99.90;;;;;;4921961;29;20047;-80
2021/11/18 19:19:43;;;;;;;8.00;4.80;;;7.60;99.90;;;;;;4920063;29;20135;-78
2021/11/18 19:22:15;;;;;;;9.27;4.75;;;7.60;99.90;;;;;;4927423;29;20565;-77
2021/11/18 19:24:44;;;;;;;8.20;4.50;;;7.60;99.90;;;;;;4930252;29;20101;-80
2021/11/18 19:27:26;;;;;;;9.80;5.15;;;7.60;99.90;;;;;;4914144;29;20485;-79